sensor_id;sensor_type;location;lat;lon;timestamp;temperature;humidity
10660;DHT22;5378;53.206;13.316;2023-08-08T00:01:37;14.60;99.90
10660;DHT22;5378;53.206;13.316;2023-08-08T00:04:26;14.60;99.90
10660;DHT22;5378;53.206;13.316;2023-08-08T00:07:13;14.70;99.90
10660;DHT22;5378;53.206;13.316;2023-08-08T00:10:00;14.80;99.90
10660;DHT22;5378;53.206;13.316;2023-08-08T00:12:47;14.70;99.90
10660;DHT22;5378;53.206;13.316;2023-08-08T00:15:34;14.70;99.90
10660;DHT22;5378;53.206;13.316;2023-08-08T00:18:21;14.80;99.90
10660;DHT22;5378;53.206;13.316;2023-08-08T00:21:09;14.80;99.90
10660;DHT22;5378;53.206;13.316;2023-08-08T00:23:57;14.80;99.90
10660;DHT22;5378;53.206;13.316;2023-08-08T00:26:44;14.90;99.90
10660;DHT22;5378;53.206;13.316;2023-08-08T00:29:31;15.00;99.90
10660;DHT22;5378;53.206;13.316;2023-08-08T00:32:18;15.10;99.90
10660;DHT22;5378;53.206;13.316;2023-08-08T00:35:05;15.10;99.90
10660;DHT22;5378;53.206;13.316;2023-08-08T00:37:53;15.10;99.90
10660;DHT22;5378;53.206;13.316;2023-08-08T00:40:40;15.00;99.90
10660;DHT22;5378;53.206;13.316;2023-08-08T00:43:28;15.10;99.90
10660;DHT22;5378;53.206;13.316;2023-08-08T00:46:15;15.10;99.90
10660;DHT22;5378;53.206;13.316;2023-08-08T00:49:02;15.10;99.90
10660;DHT22;5378;53.206;13.316;2023-08-08T00:51:49;15.10;99.90
10660;DHT22;5378;53.206;13.316;2023-08-08T00:54:38;15.10;99.90
10660;DHT22;5378;53.206;13.316;2023-08-08T00:57:26;15.00;99.90
10660;DHT22;5378;53.206;13.316;2023-08-08T01:00:13;15.00;99.90
10660;DHT22;5378;53.206;13.316;2023-08-08T01:03:01;14.90;99.90
10660;DHT22;5378;53.206;13.316;2023-08-08T01:05:51;14.80;99.90
10660;DHT22;5378;53.206;13.316;2023-08-08T01:08:45;14.70;99.90
10660;DHT22;5378;53.206;13.316;2023-08-08T01:11:34;14.80;99.90
10660;DHT22;5378;53.206;13.316;2023-08-08T01:14:24;14.70;99.90
10660;DHT22;5378;53.206;13.316;2023-08-08T01:17:13;14.80;99.90
10660;DHT22;5378;53.206;13.316;2023-08-08T01:20:01;14.80;99.90
10660;DHT22;5378;53.206;13.316;2023-08-08T01:22:57;14.90;99.90
10660;DHT22;5378;53.206;13.316;2023-08-08T01:25:48;14.90;99.90
10660;DHT22;5378;53.206;13.316;2023-08-08T01:28:35;15.00;99.90
10660;DHT22;5378;53.206;13.316;2023-08-08T01:31:22;14.90;99.90
10660;DHT22;5378;53.206;13.316;2023-08-08T01:34:10;15.00;99.90
10660;DHT22;5378;53.206;13.316;2023-08-08T01:37:11;14.90;99.90
10660;DHT22;5378;53.206;13.316;2023-08-08T01:40:00;15.00;99.90
10660;DHT22;5378;53.206;13.316;2023-08-08T01:42:50;15.00;99.90
10660;DHT22;5378;53.206;13.316;2023-08-08T01:45:38;15.00;99.90
10660;DHT22;5378;53.206;13.316;2023-08-08T01:48:28;15.00;99.90
10660;DHT22;5378;53.206;13.316;2023-08-08T01:51:15;15.00;99.90
10660;DHT22;5378;53.206;13.316;2023-08-08T01:54:02;15.00;99.90
10660;DHT22;5378;53.206;13.316;2023-08-08T01:56:49;15.00;99.90
10660;DHT22;5378;53.206;13.316;2023-08-08T01:59:38;15.00;99.90
10660;DHT22;5378;53.206;13.316;2023-08-08T02:02:25;14.90;99.90
10660;DHT22;5378;53.206;13.316;2023-08-08T02:05:13;14.80;99.90
10660;DHT22;5378;53.206;13.316;2023-08-08T02:08:00;14.90;99.90
10660;DHT22;5378;53.206;13.316;2023-08-08T02:10:49;14.90;99.90
10660;DHT22;5378;53.206;13.316;2023-08-08T02:13:36;14.90;99.90
10660;DHT22;5378;53.206;13.316;2023-08-08T02:16:24;14.90;99.90
10660;DHT22;5378;53.206;13.316;2023-08-08T02:19:12;14.90;99.90
10660;DHT22;5378;53.206;13.316;2023-08-08T02:21:59;15.00;99.90
10660;DHT22;5378;53.206;13.316;2023-08-08T02:24:47;14.90;99.90
10660;DHT22;5378;53.206;13.316;2023-08-08T02:27:34;15.00;99.90
10660;DHT22;5378;53.206;13.316;2023-08-08T02:30:20;15.00;99.90
10660;DHT22;5378;53.206;13.316;2023-08-08T02:33:09;14.90;99.90
10660;DHT22;5378;53.206;13.316;2023-08-08T02:35:56;14.80;99.90
10660;DHT22;5378;53.206;13.316;2023-08-08T02:38:43;14.90;99.90
10660;DHT22;5378;53.206;13.316;2023-08-08T02:41:31;14.80;99.90
10660;DHT22;5378;53.206;13.316;2023-08-08T02:44:18;14.80;99.90
10660;DHT22;5378;53.206;13.316;2023-08-08T02:47:06;14.80;99.90
10660;DHT22;5378;53.206;13.316;2023-08-08T02:49:55;14.90;99.90
10660;DHT22;5378;53.206;13.316;2023-08-08T02:52:42;14.80;99.90
10660;DHT22;5378;53.206;13.316;2023-08-08T02:55:29;14.80;99.90
10660;DHT22;5378;53.206;13.316;2023-08-08T02:58:15;14.80;99.90
10660;DHT22;5378;53.206;13.316;2023-08-08T03:01:03;14.80;99.90
10660;DHT22;5378;53.206;13.316;2023-08-08T03:03:51;14.80;99.90
10660;DHT22;5378;53.206;13.316;2023-08-08T03:06:41;14.70;99.90
10660;DHT22;5378;53.206;13.316;2023-08-08T03:09:28;14.80;99.90
10660;DHT22;5378;53.206;13.316;2023-08-08T03:12:15;14.80;99.90
10660;DHT22;5378;53.206;13.316;2023-08-08T03:15:04;14.80;99.90
10660;DHT22;5378;53.206;13.316;2023-08-08T03:17:51;14.80;99.90
10660;DHT22;5378;53.206;13.316;2023-08-08T03:20:40;14.70;99.90
10660;DHT22;5378;53.206;13.316;2023-08-08T03:23:31;14.70;99.90
10660;DHT22;5378;53.206;13.316;2023-08-08T03:26:18;14.70;99.90
10660;DHT22;5378;53.206;13.316;2023-08-08T03:29:05;14.70;99.90
10660;DHT22;5378;53.206;13.316;2023-08-08T03:32:00;14.70;99.90
10660;DHT22;5378;53.206;13.316;2023-08-08T03:34:50;14.80;99.90
10660;DHT22;5378;53.206;13.316;2023-08-08T03:37:37;14.90;99.90
10660;DHT22;5378;53.206;13.316;2023-08-08T03:40:25;14.90;99.90
10660;DHT22;5378;53.206;13.316;2023-08-08T03:43:13;14.90;99.90
10660;DHT22;5378;53.206;13.316;2023-08-08T03:45:59;14.90;99.90
10660;DHT22;5378;53.206;13.316;2023-08-08T03:48:48;14.80;99.90
10660;DHT22;5378;53.206;13.316;2023-08-08T03:51:36;14.80;99.90
10660;DHT22;5378;53.206;13.316;2023-08-08T03:54:23;14.90;99.90
10660;DHT22;5378;53.206;13.316;2023-08-08T03:57:12;14.80;99.90
10660;DHT22;5378;53.206;13.316;2023-08-08T03:59:59;14.80;99.90
10660;DHT22;5378;53.206;13.316;2023-08-08T04:02:46;14.80;99.90
10660;DHT22;5378;53.206;13.316;2023-08-08T04:05:32;14.80;99.90
10660;DHT22;5378;53.206;13.316;2023-08-08T04:08:19;14.80;99.90
10660;DHT22;5378;53.206;13.316;2023-08-08T04:11:07;14.80;99.90
10660;DHT22;5378;53.206;13.316;2023-08-08T04:13:55;14.80;99.90
10660;DHT22;5378;53.206;13.316;2023-08-08T04:16:43;15.00;99.90
10660;DHT22;5378;53.206;13.316;2023-08-08T04:19:30;15.00;99.90
10660;DHT22;5378;53.206;13.316;2023-08-08T04:22:17;15.00;99.90
10660;DHT22;5378;53.206;13.316;2023-08-08T04:25:05;15.00;99.90
10660;DHT22;5378;53.206;13.316;2023-08-08T04:27:52;14.90;99.90
10660;DHT22;5378;53.206;13.316;2023-08-08T04:30:40;14.90;99.90
10660;DHT22;5378;53.206;13.316;2023-08-08T04:33:27;14.80;99.90
10660;DHT22;5378;53.206;13.316;2023-08-08T04:36:14;14.90;99.90
10660;DHT22;5378;53.206;13.316;2023-08-08T04:39:02;14.80;99.90
10660;DHT22;5378;53.206;13.316;2023-08-08T04:41:49;14.90;99.90
10660;DHT22;5378;53.206;13.316;2023-08-08T04:44:36;15.00;99.90
10660;DHT22;5378;53.206;13.316;2023-08-08T04:47:24;15.00;99.90
10660;DHT22;5378;53.206;13.316;2023-08-08T04:50:11;15.10;99.90
10660;DHT22;5378;53.206;13.316;2023-08-08T04:52:58;15.10;99.90
10660;DHT22;5378;53.206;13.316;2023-08-08T04:55:45;15.30;99.90
10660;DHT22;5378;53.206;13.316;2023-08-08T04:58:33;15.40;99.90
10660;DHT22;5378;53.206;13.316;2023-08-08T05:01:20;15.50;99.90
10660;DHT22;5378;53.206;13.316;2023-08-08T05:04:09;15.60;99.90
10660;DHT22;5378;53.206;13.316;2023-08-08T05:06:56;15.80;99.90
10660;DHT22;5378;53.206;13.316;2023-08-08T05:09:44;16.10;99.90
10660;DHT22;5378;53.206;13.316;2023-08-08T05:12:32;16.10;99.90
10660;DHT22;5378;53.206;13.316;2023-08-08T05:15:18;16.30;99.90
10660;DHT22;5378;53.206;13.316;2023-08-08T05:18:05;16.60;99.90
10660;DHT22;5378;53.206;13.316;2023-08-08T05:20:54;17.10;99.90
10660;DHT22;5378;53.206;13.316;2023-08-08T05:23:41;17.30;99.90
10660;DHT22;5378;53.206;13.316;2023-08-08T05:26:28;17.30;99.90
10660;DHT22;5378;53.206;13.316;2023-08-08T05:29:15;17.20;99.90
10660;DHT22;5378;53.206;13.316;2023-08-08T05:32:02;17.00;99.90
10660;DHT22;5378;53.206;13.316;2023-08-08T05:34:52;16.70;99.90
10660;DHT22;5378;53.206;13.316;2023-08-08T05:37:41;16.60;99.90
10660;DHT22;5378;53.206;13.316;2023-08-08T05:40:27;16.60;99.90
10660;DHT22;5378;53.206;13.316;2023-08-08T05:43:15;16.70;99.90
10660;DHT22;5378;53.206;13.316;2023-08-08T05:46:03;16.60;99.90
10660;DHT22;5378;53.206;13.316;2023-08-08T05:48:51;16.60;99.90
10660;DHT22;5378;53.206;13.316;2023-08-08T05:51:39;16.70;99.90
10660;DHT22;5378;53.206;13.316;2023-08-08T05:54:28;16.80;99.90
10660;DHT22;5378;53.206;13.316;2023-08-08T05:57:15;17.30;99.90
10660;DHT22;5378;53.206;13.316;2023-08-08T06:00:02;17.70;99.90
10660;DHT22;5378;53.206;13.316;2023-08-08T06:02:57;17.90;99.90
10660;DHT22;5378;53.206;13.316;2023-08-08T06:05:44;18.00;99.90
10660;DHT22;5378;53.206;13.316;2023-08-08T06:08:32;17.80;99.90
10660;DHT22;5378;53.206;13.316;2023-08-08T06:11:20;17.80;99.90
10660;DHT22;5378;53.206;13.316;2023-08-08T06:14:07;18.00;99.90
10660;DHT22;5378;53.206;13.316;2023-08-08T06:16:54;18.20;99.90
10660;DHT22;5378;53.206;13.316;2023-08-08T06:19:42;18.20;99.90
10660;DHT22;5378;53.206;13.316;2023-08-08T06:22:29;18.10;99.90
10660;DHT22;5378;53.206;13.316;2023-08-08T06:25:16;17.80;99.90
10660;DHT22;5378;53.206;13.316;2023-08-08T06:28:05;17.60;99.90
10660;DHT22;5378;53.206;13.316;2023-08-08T06:30:53;17.40;99.90
10660;DHT22;5378;53.206;13.316;2023-08-08T06:33:40;17.40;99.90
10660;DHT22;5378;53.206;13.316;2023-08-08T06:36:27;17.70;99.90
10660;DHT22;5378;53.206;13.316;2023-08-08T06:39:14;18.10;99.90
10660;DHT22;5378;53.206;13.316;2023-08-08T06:42:21;18.40;99.90
10660;DHT22;5378;53.206;13.316;2023-08-08T06:45:35;18.50;99.90
10660;DHT22;5378;53.206;13.316;2023-08-08T06:48:23;18.30;99.90
10660;DHT22;5378;53.206;13.316;2023-08-08T06:51:10;18.00;99.90
10660;DHT22;5378;53.206;13.316;2023-08-08T06:53:57;17.60;99.90
10660;DHT22;5378;53.206;13.316;2023-08-08T06:56:44;17.70;99.90
10660;DHT22;5378;53.206;13.316;2023-08-08T06:59:31;18.00;99.90
10660;DHT22;5378;53.206;13.316;2023-08-08T07:02:19;19.20;99.90
10660;DHT22;5378;53.206;13.316;2023-08-08T07:05:07;21.20;99.90
10660;DHT22;5378;53.206;13.316;2023-08-08T07:07:55;21.50;99.90
10660;DHT22;5378;53.206;13.316;2023-08-08T07:10:42;21.80;99.90
10660;DHT22;5378;53.206;13.316;2023-08-08T07:13:29;22.90;99.90
10660;DHT22;5378;53.206;13.316;2023-08-08T07:16:16;23.50;99.90
10660;DHT22;5378;53.206;13.316;2023-08-08T07:19:05;23.90;99.90
10660;DHT22;5378;53.206;13.316;2023-08-08T07:21:52;23.20;99.90
10660;DHT22;5378;53.206;13.316;2023-08-08T07:24:39;22.50;99.90
10660;DHT22;5378;53.206;13.316;2023-08-08T07:27:27;21.60;99.90
10660;DHT22;5378;53.206;13.316;2023-08-08T07:30:14;21.10;99.90
10660;DHT22;5378;53.206;13.316;2023-08-08T07:33:02;21.60;99.90
10660;DHT22;5378;53.206;13.316;2023-08-08T07:35:51;22.40;99.90
10660;DHT22;5378;53.206;13.316;2023-08-08T07:38:38;22.90;99.90
10660;DHT22;5378;53.206;13.316;2023-08-08T07:41:25;24.00;99.90
10660;DHT22;5378;53.206;13.316;2023-08-08T07:44:12;26.10;99.90
10660;DHT22;5378;53.206;13.316;2023-08-08T07:46:59;28.00;99.90
10660;DHT22;5378;53.206;13.316;2023-08-08T07:49:46;28.00;99.90
10660;DHT22;5378;53.206;13.316;2023-08-08T07:52:35;27.70;99.90
10660;DHT22;5378;53.206;13.316;2023-08-08T07:55:22;28.50;99.90
10660;DHT22;5378;53.206;13.316;2023-08-08T07:58:09;28.30;98.10
10660;DHT22;5378;53.206;13.316;2023-08-08T08:00:57;27.50;99.10
10660;DHT22;5378;53.206;13.316;2023-08-08T08:03:47;26.80;99.90
10660;DHT22;5378;53.206;13.316;2023-08-08T08:06:34;26.30;99.90
10660;DHT22;5378;53.206;13.316;2023-08-08T08:09:23;25.70;99.90
10660;DHT22;5378;53.206;13.316;2023-08-08T08:12:10;24.70;99.90
10660;DHT22;5378;53.206;13.316;2023-08-08T08:14:57;23.60;99.90
10660;DHT22;5378;53.206;13.316;2023-08-08T08:17:44;22.50;99.90
10660;DHT22;5378;53.206;13.316;2023-08-08T08:20:31;22.10;99.90
10660;DHT22;5378;53.206;13.316;2023-08-08T08:23:18;22.30;99.90
10660;DHT22;5378;53.206;13.316;2023-08-08T08:26:07;22.20;99.90
10660;DHT22;5378;53.206;13.316;2023-08-08T08:28:54;22.00;99.90
10660;DHT22;5378;53.206;13.316;2023-08-08T08:31:41;22.10;99.90
10660;DHT22;5378;53.206;13.316;2023-08-08T08:34:28;22.00;99.90
10660;DHT22;5378;53.206;13.316;2023-08-08T08:37:16;22.00;99.90
10660;DHT22;5378;53.206;13.316;2023-08-08T08:40:04;22.10;99.90
10660;DHT22;5378;53.206;13.316;2023-08-08T08:42:52;21.90;99.90
10660;DHT22;5378;53.206;13.316;2023-08-08T08:45:40;21.50;99.90
10660;DHT22;5378;53.206;13.316;2023-08-08T08:48:29;21.20;99.90
10660;DHT22;5378;53.206;13.316;2023-08-08T08:51:18;20.90;99.90
10660;DHT22;5378;53.206;13.316;2023-08-08T08:54:05;21.20;99.90
10660;DHT22;5378;53.206;13.316;2023-08-08T08:56:52;21.60;99.90
10660;DHT22;5378;53.206;13.316;2023-08-08T08:59:41;21.70;99.90
10660;DHT22;5378;53.206;13.316;2023-08-08T09:02:28;21.90;99.90
10660;DHT22;5378;53.206;13.316;2023-08-08T09:05:15;22.00;99.90
10660;DHT22;5378;53.206;13.316;2023-08-08T09:08:07;22.50;99.90
10660;DHT22;5378;53.206;13.316;2023-08-08T09:10:55;22.90;99.90
10660;DHT22;5378;53.206;13.316;2023-08-08T09:13:42;23.40;99.90
10660;DHT22;5378;53.206;13.316;2023-08-08T09:16:31;24.20;99.90
10660;DHT22;5378;53.206;13.316;2023-08-08T09:19:18;25.00;99.90
10660;DHT22;5378;53.206;13.316;2023-08-08T09:22:05;25.60;99.90
10660;DHT22;5378;53.206;13.316;2023-08-08T09:24:53;26.10;99.90
10660;DHT22;5378;53.206;13.316;2023-08-08T09:27:40;26.40;99.90
10660;DHT22;5378;53.206;13.316;2023-08-08T09:30:28;26.60;99.90
10660;DHT22;5378;53.206;13.316;2023-08-08T09:33:18;26.10;99.90
10660;DHT22;5378;53.206;13.316;2023-08-08T09:36:06;24.90;99.90
10660;DHT22;5378;53.206;13.316;2023-08-08T09:38:54;23.60;99.90
10660;DHT22;5378;53.206;13.316;2023-08-08T09:41:41;22.40;99.90
10660;DHT22;5378;53.206;13.316;2023-08-08T09:44:29;22.10;99.90
10660;DHT22;5378;53.206;13.316;2023-08-08T09:47:17;22.40;99.90
10660;DHT22;5378;53.206;13.316;2023-08-08T09:50:08;22.80;99.90
10660;DHT22;5378;53.206;13.316;2023-08-08T09:52:55;22.90;99.90
10660;DHT22;5378;53.206;13.316;2023-08-08T09:55:44;22.90;99.90
10660;DHT22;5378;53.206;13.316;2023-08-08T09:58:31;22.90;99.90
10660;DHT22;5378;53.206;13.316;2023-08-08T10:01:19;23.00;99.90
10660;DHT22;5378;53.206;13.316;2023-08-08T10:04:08;22.80;99.90
10660;DHT22;5378;53.206;13.316;2023-08-08T10:06:57;22.30;99.90
10660;DHT22;5378;53.206;13.316;2023-08-08T10:09:44;21.80;99.90
10660;DHT22;5378;53.206;13.316;2023-08-08T10:12:31;21.60;99.90
10660;DHT22;5378;53.206;13.316;2023-08-08T10:15:18;21.50;99.90
10660;DHT22;5378;53.206;13.316;2023-08-08T10:18:06;21.60;99.90
10660;DHT22;5378;53.206;13.316;2023-08-08T10:20:53;21.80;99.90
10660;DHT22;5378;53.206;13.316;2023-08-08T10:23:42;22.00;99.90
10660;DHT22;5378;53.206;13.316;2023-08-08T10:26:29;22.00;99.90
10660;DHT22;5378;53.206;13.316;2023-08-08T10:29:18;22.00;99.90
10660;DHT22;5378;53.206;13.316;2023-08-08T10:32:06;22.00;99.90
10660;DHT22;5378;53.206;13.316;2023-08-08T10:34:55;21.90;99.90
10660;DHT22;5378;53.206;13.316;2023-08-08T10:37:52;22.20;99.90
10660;DHT22;5378;53.206;13.316;2023-08-08T10:40:43;22.40;99.90
10660;DHT22;5378;53.206;13.316;2023-08-08T10:43:31;22.20;99.90
10660;DHT22;5378;53.206;13.316;2023-08-08T10:46:25;21.80;99.90
10660;DHT22;5378;53.206;13.316;2023-08-08T10:49:13;21.50;99.90
10660;DHT22;5378;53.206;13.316;2023-08-08T10:52:03;21.40;99.90
10660;DHT22;5378;53.206;13.316;2023-08-08T10:54:52;21.80;99.90
10660;DHT22;5378;53.206;13.316;2023-08-08T10:57:41;22.00;99.90
10660;DHT22;5378;53.206;13.316;2023-08-08T11:00:29;21.90;99.90
10660;DHT22;5378;53.206;13.316;2023-08-08T11:03:17;21.90;99.90
10660;DHT22;5378;53.206;13.316;2023-08-08T11:06:05;22.00;99.90
10660;DHT22;5378;53.206;13.316;2023-08-08T11:08:53;22.00;99.90
10660;DHT22;5378;53.206;13.316;2023-08-08T11:11:41;21.90;99.90
10660;DHT22;5378;53.206;13.316;2023-08-08T11:14:30;21.90;99.90
10660;DHT22;5378;53.206;13.316;2023-08-08T11:17:18;22.00;99.90
10660;DHT22;5378;53.206;13.316;2023-08-08T11:20:06;22.00;99.90
10660;DHT22;5378;53.206;13.316;2023-08-08T11:22:54;22.00;99.90
10660;DHT22;5378;53.206;13.316;2023-08-08T11:25:43;21.80;99.90
10660;DHT22;5378;53.206;13.316;2023-08-08T11:28:31;21.60;99.90
10660;DHT22;5378;53.206;13.316;2023-08-08T11:31:19;21.50;99.90
10660;DHT22;5378;53.206;13.316;2023-08-08T11:34:07;21.20;99.90
10660;DHT22;5378;53.206;13.316;2023-08-08T11:36:55;21.00;99.90
10660;DHT22;5378;53.206;13.316;2023-08-08T11:39:44;21.10;99.90
10660;DHT22;5378;53.206;13.316;2023-08-08T11:42:31;21.20;99.90
10660;DHT22;5378;53.206;13.316;2023-08-08T11:45:19;21.50;99.90
10660;DHT22;5378;53.206;13.316;2023-08-08T11:48:08;21.90;99.90
10660;DHT22;5378;53.206;13.316;2023-08-08T11:50:56;21.90;99.90
10660;DHT22;5378;53.206;13.316;2023-08-08T11:53:50;21.80;99.90
10660;DHT22;5378;53.206;13.316;2023-08-08T11:56:38;21.50;99.90
10660;DHT22;5378;53.206;13.316;2023-08-08T11:59:25;20.90;99.90
10660;DHT22;5378;53.206;13.316;2023-08-08T12:02:12;20.00;99.90
10660;DHT22;5378;53.206;13.316;2023-08-08T12:05:05;19.20;99.90
10660;DHT22;5378;53.206;13.316;2023-08-08T12:07:53;18.50;99.90
10660;DHT22;5378;53.206;13.316;2023-08-08T12:10:39;17.90;99.90
10660;DHT22;5378;53.206;13.316;2023-08-08T12:13:27;17.50;99.90
10660;DHT22;5378;53.206;13.316;2023-08-08T12:16:14;17.30;99.90
10660;DHT22;5378;53.206;13.316;2023-08-08T12:19:02;17.20;99.90
10660;DHT22;5378;53.206;13.316;2023-08-08T12:21:51;17.00;99.90
10660;DHT22;5378;53.206;13.316;2023-08-08T12:24:38;17.00;99.90
10660;DHT22;5378;53.206;13.316;2023-08-08T12:27:25;17.10;99.90
10660;DHT22;5378;53.206;13.316;2023-08-08T12:30:12;17.30;99.90
10660;DHT22;5378;53.206;13.316;2023-08-08T12:33:00;17.50;99.90
10660;DHT22;5378;53.206;13.316;2023-08-08T12:35:48;17.80;99.90
10660;DHT22;5378;53.206;13.316;2023-08-08T12:38:36;18.00;99.90
10660;DHT22;5378;53.206;13.316;2023-08-08T12:41:23;18.40;99.90
10660;DHT22;5378;53.206;13.316;2023-08-08T12:44:11;18.70;99.90
10660;DHT22;5378;53.206;13.316;2023-08-08T12:46:58;18.90;99.90
10660;DHT22;5378;53.206;13.316;2023-08-08T12:49:45;19.20;99.90
10660;DHT22;5378;53.206;13.316;2023-08-08T12:52:32;19.40;99.90
10660;DHT22;5378;53.206;13.316;2023-08-08T12:55:21;19.60;99.90
10660;DHT22;5378;53.206;13.316;2023-08-08T12:58:08;19.60;99.90
10660;DHT22;5378;53.206;13.316;2023-08-08T13:00:55;19.70;99.90
10660;DHT22;5378;53.206;13.316;2023-08-08T13:03:42;19.70;99.90
10660;DHT22;5378;53.206;13.316;2023-08-08T13:06:33;19.70;99.90
10660;DHT22;5378;53.206;13.316;2023-08-08T13:09:20;19.70;99.90
10660;DHT22;5378;53.206;13.316;2023-08-08T13:12:08;19.90;99.90
10660;DHT22;5378;53.206;13.316;2023-08-08T13:14:55;20.00;99.90
10660;DHT22;5378;53.206;13.316;2023-08-08T13:17:43;20.00;99.90
10660;DHT22;5378;53.206;13.316;2023-08-08T13:20:30;19.80;99.90
10660;DHT22;5378;53.206;13.316;2023-08-08T13:23:17;19.60;99.90
10660;DHT22;5378;53.206;13.316;2023-08-08T13:26:04;19.20;99.90
10660;DHT22;5378;53.206;13.316;2023-08-08T13:28:52;18.60;99.90
10660;DHT22;5378;53.206;13.316;2023-08-08T13:31:39;18.10;99.90
10660;DHT22;5378;53.206;13.316;2023-08-08T13:34:26;17.70;99.90
10660;DHT22;5378;53.206;13.316;2023-08-08T13:37:14;17.70;99.90
10660;DHT22;5378;53.206;13.316;2023-08-08T13:40:01;17.80;99.90
10660;DHT22;5378;53.206;13.316;2023-08-08T13:42:48;18.00;99.90
10660;DHT22;5378;53.206;13.316;2023-08-08T13:45:37;18.10;99.90
10660;DHT22;5378;53.206;13.316;2023-08-08T13:48:25;18.20;99.90
10660;DHT22;5378;53.206;13.316;2023-08-08T13:51:12;18.30;99.90
10660;DHT22;5378;53.206;13.316;2023-08-08T13:53:59;18.50;99.90
10660;DHT22;5378;53.206;13.316;2023-08-08T13:56:46;18.70;99.90
10660;DHT22;5378;53.206;13.316;2023-08-08T13:59:34;19.00;99.90
10660;DHT22;5378;53.206;13.316;2023-08-08T14:02:22;19.20;99.90
10660;DHT22;5378;53.206;13.316;2023-08-08T14:05:10;19.40;99.90
10660;DHT22;5378;53.206;13.316;2023-08-08T14:07:57;19.70;99.90
10660;DHT22;5378;53.206;13.316;2023-08-08T14:10:44;19.80;99.90
10660;DHT22;5378;53.206;13.316;2023-08-08T14:13:31;20.00;99.90
10660;DHT22;5378;53.206;13.316;2023-08-08T14:16:20;19.90;99.90
10660;DHT22;5378;53.206;13.316;2023-08-08T14:19:09;19.70;99.90
10660;DHT22;5378;53.206;13.316;2023-08-08T14:21:56;19.50;99.90
10660;DHT22;5378;53.206;13.316;2023-08-08T14:24:44;19.50;99.90
10660;DHT22;5378;53.206;13.316;2023-08-08T14:27:31;19.50;99.90
10660;DHT22;5378;53.206;13.316;2023-08-08T14:30:18;19.30;99.90
10660;DHT22;5378;53.206;13.316;2023-08-08T14:33:06;19.00;99.90
10660;DHT22;5378;53.206;13.316;2023-08-08T14:35:55;18.90;99.90
10660;DHT22;5378;53.206;13.316;2023-08-08T14:38:42;18.70;99.90
10660;DHT22;5378;53.206;13.316;2023-08-08T14:41:29;18.70;99.90
10660;DHT22;5378;53.206;13.316;2023-08-08T14:44:16;18.80;99.90
10660;DHT22;5378;53.206;13.316;2023-08-08T14:47:04;18.80;99.90
10660;DHT22;5378;53.206;13.316;2023-08-08T14:49:51;18.90;99.90
10660;DHT22;5378;53.206;13.316;2023-08-08T14:52:40;18.80;99.90
10660;DHT22;5378;53.206;13.316;2023-08-08T14:55:27;18.70;99.90
10660;DHT22;5378;53.206;13.316;2023-08-08T14:58:14;18.60;99.90
10660;DHT22;5378;53.206;13.316;2023-08-08T15:01:02;18.50;99.90
10660;DHT22;5378;53.206;13.316;2023-08-08T15:03:49;18.40;99.90
10660;DHT22;5378;53.206;13.316;2023-08-08T15:06:37;18.50;99.90
10660;DHT22;5378;53.206;13.316;2023-08-08T15:09:25;18.70;99.90
10660;DHT22;5378;53.206;13.316;2023-08-08T15:12:15;18.70;99.90
10660;DHT22;5378;53.206;13.316;2023-08-08T15:15:02;18.70;99.90
10660;DHT22;5378;53.206;13.316;2023-08-08T15:17:50;18.80;99.90
10660;DHT22;5378;53.206;13.316;2023-08-08T15:20:37;19.00;99.90
10660;DHT22;5378;53.206;13.316;2023-08-08T15:23:24;19.10;99.90
10660;DHT22;5378;53.206;13.316;2023-08-08T15:26:14;19.40;99.90
10660;DHT22;5378;53.206;13.316;2023-08-08T15:29:02;19.40;99.90
10660;DHT22;5378;53.206;13.316;2023-08-08T15:31:49;19.20;99.90
10660;DHT22;5378;53.206;13.316;2023-08-08T15:34:36;19.20;99.90
10660;DHT22;5378;53.206;13.316;2023-08-08T15:37:23;19.20;99.90
10660;DHT22;5378;53.206;13.316;2023-08-08T15:40:11;18.90;99.90
10660;DHT22;5378;53.206;13.316;2023-08-08T15:42:59;18.70;99.90
10660;DHT22;5378;53.206;13.316;2023-08-08T15:45:46;18.70;99.90
10660;DHT22;5378;53.206;13.316;2023-08-08T15:48:34;18.80;99.90
10660;DHT22;5378;53.206;13.316;2023-08-08T15:51:21;18.80;99.90
10660;DHT22;5378;53.206;13.316;2023-08-08T15:54:08;18.80;99.90
10660;DHT22;5378;53.206;13.316;2023-08-08T15:56:55;18.80;99.90
10660;DHT22;5378;53.206;13.316;2023-08-08T15:59:44;18.90;99.90
10660;DHT22;5378;53.206;13.316;2023-08-08T16:02:32;18.90;99.90
10660;DHT22;5378;53.206;13.316;2023-08-08T16:05:20;18.70;99.90
10660;DHT22;5378;53.206;13.316;2023-08-08T16:08:07;18.60;99.90
10660;DHT22;5378;53.206;13.316;2023-08-08T16:10:54;18.50;99.90
10660;DHT22;5378;53.206;13.316;2023-08-08T16:13:41;18.30;99.90
10660;DHT22;5378;53.206;13.316;2023-08-08T16:16:30;18.20;99.90
10660;DHT22;5378;53.206;13.316;2023-08-08T16:19:18;18.20;99.90
10660;DHT22;5378;53.206;13.316;2023-08-08T16:22:04;18.30;99.90
10660;DHT22;5378;53.206;13.316;2023-08-08T16:24:52;18.40;99.90
10660;DHT22;5378;53.206;13.316;2023-08-08T16:27:39;18.50;99.90
10660;DHT22;5378;53.206;13.316;2023-08-08T16:30:27;18.60;99.90
10660;DHT22;5378;53.206;13.316;2023-08-08T16:33:15;18.70;99.90
10660;DHT22;5378;53.206;13.316;2023-08-08T16:36:04;18.70;99.90
10660;DHT22;5378;53.206;13.316;2023-08-08T16:38:52;18.60;99.90
10660;DHT22;5378;53.206;13.316;2023-08-08T16:41:40;18.50;99.90
10660;DHT22;5378;53.206;13.316;2023-08-08T16:44:27;18.30;99.90
10660;DHT22;5378;53.206;13.316;2023-08-08T16:47:14;18.20;99.90
10660;DHT22;5378;53.206;13.316;2023-08-08T16:50:03;18.00;99.90
10660;DHT22;5378;53.206;13.316;2023-08-08T16:52:50;17.90;99.90
10660;DHT22;5378;53.206;13.316;2023-08-08T16:55:37;17.80;99.90
10660;DHT22;5378;53.206;13.316;2023-08-08T16:58:24;17.60;99.90
10660;DHT22;5378;53.206;13.316;2023-08-08T17:01:11;17.60;99.90
10660;DHT22;5378;53.206;13.316;2023-08-08T17:03:59;17.60;99.90
10660;DHT22;5378;53.206;13.316;2023-08-08T17:06:47;17.60;99.90
10660;DHT22;5378;53.206;13.316;2023-08-08T17:09:34;17.50;99.90
10660;DHT22;5378;53.206;13.316;2023-08-08T17:12:22;17.50;99.90
10660;DHT22;5378;53.206;13.316;2023-08-08T17:15:09;17.40;99.90
10660;DHT22;5378;53.206;13.316;2023-08-08T17:17:56;17.40;99.90
10660;DHT22;5378;53.206;13.316;2023-08-08T17:20:43;17.40;99.90
10660;DHT22;5378;53.206;13.316;2023-08-08T17:23:32;17.50;99.90
10660;DHT22;5378;53.206;13.316;2023-08-08T17:26:19;17.50;99.90
10660;DHT22;5378;53.206;13.316;2023-08-08T17:29:06;17.40;99.90
10660;DHT22;5378;53.206;13.316;2023-08-08T17:31:53;17.40;99.90
10660;DHT22;5378;53.206;13.316;2023-08-08T17:34:40;17.50;99.90
10660;DHT22;5378;53.206;13.316;2023-08-08T17:37:28;17.60;99.90
10660;DHT22;5378;53.206;13.316;2023-08-08T17:40:16;17.60;99.90